Time;durP1;ratioP1;P1;durP2;ratioP2;P2;SDS_P1;SDS_P2;PMS_P1;PMS_P2;Temp;Humidity;BMP_temperature;BMP_pressure;BME280_temperature;BME280_humidity;BME280_pressure;Samples;Min_cycle;Max_cycle;Signal;HPM_P1;HPM_P2
2023/07/28 00:00:06;;;;;;;4.35;2.70;;;19.40;99.90;;;;;;5047514;28;20025;-42
2023/07/28 00:02:32;;;;;;;2.50;2.30;;;19.40;99.90;;;;;;5047380;28;20044;-43
2023/07/28 00:04:58;;;;;;;3.03;2.83;;;19.40;99.90;;;;;;5048530;28;20029;-41
2023/07/28 00:07:23;;;;;;;2.88;2.67;;;19.40;99.90;;;;;;5047027;28;20041;-41
2023/07/28 00:09:49;;;;;;;3.10;2.90;;;19.40;99.90;;;;;;5047821;28;20053;-41
2023/07/28 00:12:14;;;;;;;2.90;2.70;;;19.40;99.90;;;;;;5046947;28;20040;-41
2023/07/28 00:14:40;;;;;;;2.75;2.55;;;19.40;99.90;;;;;;5047595;28;20031;-41
2023/07/28 00:17:05;;;;;;;2.88;2.67;;;19.40;99.90;;;;;;5047008;28;20029;-42
2023/07/28 00:19:31;;;;;;;3.58;3.10;;;19.40;99.90;;;;;;5046447;28;20025;-42
2023/07/28 00:21:56;;;;;;;2.22;2.03;;;19.40;99.90;;;;;;5047230;28;20137;-41
2023/07/28 00:24:22;;;;;;;4.00;3.70;;;19.40;99.90;;;;;;5047758;28;20336;-42
2023/07/28 00:26:48;;;;;;;3.70;3.40;;;19.40;99.90;;;;;;5047025;28;20542;-42
2023/07/28 00:29:13;;;;;;;3.75;3.45;;;19.40;99.90;;;;;;5047324;28;20037;-42
2023/07/28 00:31:39;;;;;;;3.42;3.17;;;19.40;99.90;;;;;;5047312;28;20028;-42
2023/07/28 00:34:04;;;;;;;3.70;3.40;;;19.30;99.90;;;;;;5046566;28;20464;-42
2023/07/28 00:36:31;;;;;;;3.63;3.33;;;19.40;99.90;;;;;;5047843;28;20025;-42
2023/07/28 00:38:57;;;;;;;4.10;3.80;;;19.30;99.90;;;;;;5047674;28;20104;-42
2023/07/28 00:41:25;;;;;;;3.10;2.90;;;19.30;99.90;;;;;;5046343;28;20514;-42
2023/07/28 00:43:51;;;;;;;3.45;3.25;;;19.30;99.90;;;;;;5046805;28;20037;-42
2023/07/28 00:46:17;;;;;;;3.60;3.30;;;19.30;99.90;;;;;;5047556;28;20021;-42
2023/07/28 00:48:43;;;;;;;3.20;3.00;;;19.30;99.90;;;;;;5046207;28;20163;-41
2023/07/28 00:51:09;;;;;;;3.28;3.08;;;19.30;99.90;;;;;;5047617;28;20029;-41
2023/07/28 00:53:35;;;;;;;3.08;2.78;;;19.40;99.90;;;;;;5046876;28;20013;-42
2023/07/28 00:56:06;;;;;;;3.08;2.85;;;19.40;99.90;;;;;;5045734;28;20437;-42
2023/07/28 00:58:31;;;;;;;3.50;2.85;;;19.40;99.90;;;;;;5045998;28;20094;-42
2023/07/28 01:00:57;;;;;;;3.25;3.05;;;19.40;99.90;;;;;;5046766;28;20021;-42
2023/07/28 01:03:24;;;;;;;3.10;2.90;;;19.40;99.90;;;;;;5046113;28;20110;-42
2023/07/28 01:05:59;;;;;;;4.28;3.00;;;19.40;99.90;;;;;;5046793;28;20029;-42
2023/07/28 01:08:28;;;;;;;3.20;2.90;;;19.40;99.90;;;;;;5046647;28;20067;-42
2023/07/28 01:10:54;;;;;;;2.75;2.55;;;19.40;99.90;;;;;;5035126;28;20064;-41
2023/07/28 01:13:20;;;;;;;3.10;2.88;;;19.40;99.90;;;;;;5046445;28;20131;-41
2023/07/28 01:15:45;;;;;;;4.10;3.65;;;19.40;99.90;;;;;;5045647;28;20472;-42
2023/07/28 01:18:11;;;;;;;3.88;3.58;;;19.40;99.90;;;;;;5046270;28;20066;-42
2023/07/28 01:20:39;;;;;;;3.35;3.00;;;19.40;99.90;;;;;;5044912;28;20028;-43
2023/07/28 01:23:09;;;;;;;2.97;2.78;;;19.40;99.90;;;;;;5045874;28;20204;-42
2023/07/28 01:25:56;;;;;;;3.03;2.83;;;19.40;99.90;;;;;;5046487;28;20013;-43
2023/07/28 01:28:25;;;;;;;3.40;2.85;;;19.40;99.90;;;;;;5046723;28;20453;-43
2023/07/28 01:30:50;;;;;;;3.15;2.95;;;19.40;99.90;;;;;;5044997;28;20086;-41
2023/07/28 01:33:16;;;;;;;3.30;2.97;;;19.40;99.90;;;;;;5046348;28;20028;-41
2023/07/28 01:35:45;;;;;;;3.15;2.95;;;19.40;99.90;;;;;;5046199;28;20036;-42
2023/07/28 01:38:13;;;;;;;3.17;2.95;;;19.50;99.90;;;;;;5045686;28;20029;-42
2023/07/28 01:40:39;;;;;;;3.28;3.08;;;19.40;99.90;;;;;;5045441;28;20032;-42
2023/07/28 01:43:04;;;;;;;3.20;3.00;;;19.40;99.90;;;;;;5045308;28;20082;-42
2023/07/28 01:45:30;;;;;;;3.72;3.30;;;19.40;99.90;;;;;;5045215;28;20040;-41
2023/07/28 01:47:55;;;;;;;3.40;3.10;;;19.40;99.90;;;;;;5045587;28;20032;-41
2023/07/28 01:50:21;;;;;;;4.78;4.40;;;19.40;99.90;;;;;;5045462;28;20025;-42
2023/07/28 01:52:46;;;;;;;4.35;3.95;;;19.40;99.90;;;;;;5044771;28;20040;-42
2023/07/28 01:55:12;;;;;;;4.65;4.25;;;19.40;99.90;;;;;;5045581;28;20017;-42
2023/07/28 01:57:51;;;;;;;3.95;3.65;;;19.40;99.90;;;;;;5046092;28;20025;-42
2023/07/28 02:00:17;;;;;;;4.50;4.10;;;19.40;99.90;;;;;;5045622;28;20689;-42
2023/07/28 02:02:43;;;;;;;4.45;3.88;;;19.40;99.90;;;;;;5045169;28;20434;-42
2023/07/28 02:05:08;;;;;;;5.07;4.60;;;19.40;99.90;;;;;;5044630;28;20009;-41
2023/07/28 02:07:36;;;;;;;4.80;4.30;;;19.40;99.90;;;;;;5045365;28;20021;-42
2023/07/28 02:10:02;;;;;;;4.78;4.30;;;19.40;99.90;;;;;;5045242;28;20048;-42
2023/07/28 02:12:28;;;;;;;4.55;4.15;;;19.40;99.90;;;;;;5045527;28;20024;-42
2023/07/28 02:14:53;;;;;;;4.20;3.80;;;19.40;99.90;;;;;;5046477;28;20025;-42
2023/07/28 02:17:19;;;;;;;3.88;3.58;;;19.40;99.90;;;;;;5045229;28;20531;-41
2023/07/28 02:19:44;;;;;;;5.45;4.95;;;19.40;99.90;;;;;;5044671;28;20423;-42
2023/07/28 02:22:11;;;;;;;5.07;4.60;;;19.40;99.90;;;;;;5045209;28;20033;-42
2023/07/28 02:24:36;;;;;;;5.65;4.95;;;19.40;99.90;;;;;;5045214;28;20056;-42
2023/07/28 02:27:02;;;;;;;5.10;4.55;;;19.40;99.90;;;;;;5044117;28;20048;-41
2023/07/28 02:29:28;;;;;;;5.38;4.82;;;19.40;99.90;;;;;;5045825;28;20029;-41
2023/07/28 02:31:53;;;;;;;7.60;6.22;;;19.40;99.90;;;;;;5044685;28;20021;-41
2023/07/28 02:34:19;;;;;;;6.45;5.53;;;19.40;99.90;;;;;;5044632;28;20389;-42
2023/07/28 02:36:44;;;;;;;7.70;6.70;;;19.40;99.90;;;;;;5045010;28;20029;-42
2023/07/28 02:39:13;;;;;;;6.35;5.75;;;19.40;99.90;;;;;;5045296;28;20029;-42
2023/07/28 02:41:38;;;;;;;9.43;5.57;;;19.40;99.90;;;;;;5044513;28;20055;-43
2023/07/28 02:44:04;;;;;;;5.43;4.93;;;19.40;99.90;;;;;;5044461;28;20033;-42
2023/07/28 02:46:33;;;;;;;9.05;6.70;;;19.40;99.90;;;;;;5045357;28;20032;-42
2023/07/28 02:48:58;;;;;;;6.88;5.80;;;19.40;99.90;;;;;;5044307;28;20029;-42
2023/07/28 02:51:24;;;;;;;6.38;5.55;;;19.40;99.90;;;;;;5045183;28;20028;-43
2023/07/28 02:53:49;;;;;;;6.40;5.80;;;19.40;99.90;;;;;;5044749;28;20899;-43
2023/07/28 02:56:15;;;;;;;6.22;5.63;;;19.40;99.90;;;;;;5043925;28;20040;-42
2023/07/28 02:58:41;;;;;;;6.85;5.70;;;19.40;99.90;;;;;;5044966;28;20037;-42
2023/07/28 03:01:06;;;;;;;7.95;6.32;;;19.40;99.90;;;;;;5044581;28;20074;-42
2023/07/28 03:03:34;;;;;;;8.50;6.25;;;19.40;99.90;;;;;;5044776;28;20083;-43
2023/07/28 03:06:00;;;;;;;6.00;5.40;;;19.40;99.90;;;;;;5044968;28;20024;-42
2023/07/28 03:08:26;;;;;;;8.80;5.90;;;19.50;99.90;;;;;;5044164;28;20027;-42
2023/07/28 03:10:59;;;;;;;8.48;6.32;;;19.40;99.90;;;;;;5044537;28;20041;-42
2023/07/28 03:13:24;;;;;;;8.65;6.88;;;19.50;99.90;;;;;;5044666;28;20064;-43
2023/07/28 03:15:50;;;;;;;7.90;7.10;;;19.50;99.90;;;;;;5044376;28;20493;-42
2023/07/28 03:18:15;;;;;;;8.20;7.18;;;19.40;99.90;;;;;;5044595;28;20019;-42
2023/07/28 03:20:41;;;;;;;11.07;7.63;;;19.40;99.90;;;;;;5045004;28;20021;-43
2023/07/28 03:23:07;;;;;;;9.02;7.63;;;19.50;99.90;;;;;;5047077;28;20493;-41
2023/07/28 03:25:32;;;;;;;9.15;7.07;;;19.40;99.90;;;;;;5048633;28;20060;-42
2023/07/28 03:28:01;;;;;;;9.65;7.55;;;19.40;99.90;;;;;;5048469;28;20079;-42
2023/07/28 03:30:26;;;;;;;8.57;7.15;;;19.40;99.90;;;;;;5048417;28;20024;-43
2023/07/28 03:32:52;;;;;;;8.48;7.00;;;19.40;99.90;;;;;;5048079;28;20033;-42
2023/07/28 03:35:17;;;;;;;8.40;7.38;;;19.40;99.90;;;;;;5048324;28;20024;-42
2023/07/28 03:37:43;;;;;;;12.68;8.85;;;19.50;99.90;;;;;;5047822;28;20032;-41
2023/07/28 03:40:09;;;;;;;11.90;8.45;;;19.40;99.90;;;;;;5047939;28;20036;-41
2023/07/28 03:42:38;;;;;;;10.38;8.35;;;19.50;99.90;;;;;;5048281;28;20056;-42
2023/07/28 03:45:07;;;;;;;11.85;8.25;;;19.40;99.90;;;;;;5046968;28;20032;-42
2023/07/28 03:47:36;;;;;;;9.55;8.30;;;19.40;99.90;;;;;;5048151;28;20029;-42
2023/07/28 03:50:02;;;;;;;15.35;9.70;;;19.40;99.90;;;;;;5047889;28;20067;-42
2023/07/28 03:52:28;;;;;;;9.60;7.80;;;19.40;99.90;;;;;;5047782;28;20111;-42
2023/07/28 03:54:53;;;;;;;9.00;7.30;;;19.40;99.90;;;;;;5047496;28;20415;-43
2023/07/28 03:57:19;;;;;;;12.65;8.15;;;19.40;99.90;;;;;;5047136;28;20087;-41
2023/07/28 03:59:44;;;;;;;9.95;7.72;;;19.40;99.90;;;;;;5047955;28;20025;-42
2023/07/28 04:02:10;;;;;;;10.73;7.93;;;19.50;99.90;;;;;;5047903;28;20031;-41
2023/07/28 04:04:36;;;;;;;10.45;7.82;;;19.40;99.90;;;;;;5047205;28;20582;-41
2023/07/28 04:07:02;;;;;;;10.18;7.95;;;19.50;99.90;;;;;;5048548;28;20389;-42
2023/07/28 04:09:27;;;;;;;13.18;8.50;;;19.50;99.90;;;;;;5047837;28;20024;-41
2023/07/28 04:11:53;;;;;;;12.52;9.77;;;19.40;99.90;;;;;;5046641;28;20653;-41
2023/07/28 04:14:18;;;;;;;13.90;10.20;;;19.40;99.90;;;;;;5048275;28;20064;-42
2023/07/28 04:16:44;;;;;;;15.07;10.60;;;19.40;99.90;;;;;;5047505;28;20763;-42
2023/07/28 04:19:10;;;;;;;13.55;9.65;;;19.40;99.90;;;;;;5047135;28;20058;-42
2023/07/28 04:21:39;;;;;;;14.38;10.40;;;19.40;99.90;;;;;;5047210;28;20059;-43
2023/07/28 04:24:06;;;;;;;14.77;9.70;;;19.40;99.90;;;;;;5047809;28;20666;-42
2023/07/28 04:26:32;;;;;;;15.70;10.52;;;19.40;99.90;;;;;;5046295;28;20120;-42
2023/07/28 04:28:57;;;;;;;12.95;9.93;;;19.40;99.90;;;;;;5047536;28;20104;-43
2023/07/28 04:31:26;;;;;;;10.82;8.52;;;19.40;99.90;;;;;;5047571;28;20043;-41
2023/07/28 04:33:52;;;;;;;11.55;8.13;;;19.40;99.90;;;;;;5046348;28;20044;-42
2023/07/28 04:36:17;;;;;;;12.07;8.70;;;19.40;99.90;;;;;;5046697;28;20025;-42
2023/07/28 04:38:43;;;;;;;10.98;7.95;;;19.40;99.90;;;;;;5046924;28;20051;-42
2023/07/28 04:41:08;;;;;;;10.52;8.52;;;19.40;99.90;;;;;;5046046;28;20059;-42
2023/07/28 04:43:34;;;;;;;12.07;8.32;;;19.50;99.90;;;;;;5046767;28;20078;-42
2023/07/28 04:45:59;;;;;;;15.75;8.85;;;19.50;99.90;;;;;;5046673;28;20025;-42
2023/07/28 04:48:26;;;;;;;12.27;8.30;;;19.40;99.90;;;;;;5046921;28;20472;-41
2023/07/28 04:50:52;;;;;;;14.13;9.10;;;19.40;99.90;;;;;;5046858;28;20095;-43
2023/07/28 04:53:20;;;;;;;12.52;8.95;;;19.50;99.90;;;;;;5047395;28;20717;-43
2023/07/28 04:55:46;;;;;;;11.18;8.82;;;19.50;99.90;;;;;;5046257;28;20033;-43
2023/07/28 04:58:11;;;;;;;12.00;8.50;;;19.50;99.90;;;;;;5046880;28;20532;-41
2023/07/28 05:00:37;;;;;;;10.10;8.02;;;19.40;99.90;;;;;;5046316;28;20028;-44
2023/07/28 05:03:06;;;;;;;10.85;8.40;;;19.50;99.90;;;;;;5045015;28;20084;-42
2023/07/28 05:05:31;;;;;;;14.57;9.43;;;19.50;99.90;;;;;;5046853;28;20025;-42
2023/07/28 05:07:57;;;;;;;14.68;9.70;;;19.50;99.90;;;;;;5046208;28;20025;-42
2023/07/28 05:10:25;;;;;;;14.27;9.73;;;19.50;99.90;;;;;;5046296;28;20048;-42
2023/07/28 05:12:51;;;;;;;12.07;8.88;;;19.60;99.90;;;;;;5046446;28;20044;-41
2023/07/28 05:15:20;;;;;;;16.23;11.15;;;19.50;99.90;;;;;;5045949;28;20017;-42
2023/07/28 05:17:46;;;;;;;12.13;9.43;;;19.50;99.90;;;;;;5046529;28;20432;-42
2023/07/28 05:20:11;;;;;;;14.10;9.80;;;19.50;99.90;;;;;;5046918;28;20111;-42
2023/07/28 05:22:37;;;;;;;16.38;10.95;;;19.50;99.90;;;;;;5045596;28;20052;-42
2023/07/28 05:25:07;;;;;;;16.30;10.45;;;19.50;99.90;;;;;;5046146;28;20021;-41
2023/07/28 05:27:35;;;;;;;13.60;9.98;;;19.50;99.90;;;;;;5046516;28;20111;-42
2023/07/28 05:30:01;;;;;;;13.52;10.25;;;19.50;99.90;;;;;;5045463;28;20029;-42
2023/07/28 05:32:26;;;;;;;13.30;10.23;;;19.50;99.90;;;;;;5046176;28;20039;-41
2023/07/28 05:34:52;;;;;;;11.98;9.98;;;19.50;99.90;;;;;;5046156;28;20037;-41
2023/07/28 05:37:17;;;;;;;15.50;9.65;;;19.50;99.90;;;;;;5045111;28;20057;-40
2023/07/28 05:39:44;;;;;;;13.15;10.18;;;19.60;99.90;;;;;;5045619;28;20754;-41
2023/07/28 05:42:09;;;;;;;14.48;10.13;;;19.60;99.90;;;;;;5045906;28;20102;-41
2023/07/28 05:44:35;;;;;;;14.98;9.65;;;19.50;99.90;;;;;;5044027;28;20029;-42
2023/07/28 05:47:00;;;;;;;12.57;9.40;;;19.60;99.90;;;;;;5046088;28;20828;-43
2023/07/28 05:49:26;;;;;;;12.90;9.73;;;19.60;99.90;;;;;;5046144;28;20033;-43
2023/07/28 05:51:54;;;;;;;13.18;10.48;;;19.60;99.90;;;;;;5045588;28;20602;-42
2023/07/28 05:54:20;;;;;;;12.73;10.10;;;19.60;99.90;;;;;;5045450;28;20125;-42
2023/07/28 05:56:46;;;;;;;12.90;9.52;;;19.60;99.90;;;;;;5043957;28;20100;-42
2023/07/28 05:59:12;;;;;;;12.27;9.77;;;19.60;99.90;;;;;;5043571;28;20029;-41
2023/07/28 06:01:37;;;;;;;11.38;9.63;;;19.60;99.90;;;;;;5044995;28;20025;-42
2023/07/28 06:04:03;;;;;;;10.90;9.15;;;19.70;99.90;;;;;;5043941;28;20472;-42
2023/07/28 06:06:29;;;;;;;12.77;10.02;;;19.70;99.90;;;;;;5044219;28;20612;-41
2023/07/28 06:08:54;;;;;;;10.38;8.77;;;19.70;99.90;;;;;;5044851;28;20036;-42
2023/07/28 06:11:21;;;;;;;12.70;9.43;;;19.60;99.90;;;;;;5043387;28;20051;-41
2023/07/28 06:13:47;;;;;;;10.90;9.13;;;19.70;99.90;;;;;;5044647;28;20112;-42
2023/07/28 06:16:15;;;;;;;8.60;7.70;;;19.70;99.90;;;;;;5044054;28;20120;-42
2023/07/28 06:18:41;;;;;;;9.90;7.47;;;19.70;99.90;;;;;;5044011;28;20057;-43
2023/07/28 06:21:16;;;;;;;9.70;8.00;;;19.70;99.90;;;;;;5044528;28;20025;-42
2023/07/28 06:23:42;;;;;;;8.73;7.70;;;19.80;99.90;;;;;;5043838;28;20028;-44
2023/07/28 06:26:08;;;;;;;9.90;8.57;;;19.80;99.90;;;;;;5043711;28;20028;-42
2023/07/28 06:28:33;;;;;;;11.45;8.52;;;19.80;99.90;;;;;;5044695;28;20033;-42
2023/07/28 06:30:59;;;;;;;10.93;8.60;;;19.80;99.90;;;;;;5043945;28;20091;-42
2023/07/28 06:33:25;;;;;;;10.90;8.75;;;19.90;99.90;;;;;;5044668;28;20037;-41
2023/07/28 06:35:52;;;;;;;11.40;8.80;;;19.80;99.90;;;;;;5044074;28;20021;-42
2023/07/28 06:38:18;;;;;;;12.20;9.80;;;19.80;99.90;;;;;;5044816;28;20515;-41
2023/07/28 06:40:43;;;;;;;11.73;9.48;;;19.80;99.90;;;;;;5043590;28;20114;-42
2023/07/28 06:43:09;;;;;;;11.65;9.45;;;19.80;99.90;;;;;;5044382;28;20033;-42
2023/07/28 06:45:37;;;;;;;11.13;8.82;;;19.80;99.90;;;;;;5045235;28;20013;-41
2023/07/28 06:48:03;;;;;;;10.75;8.50;;;19.90;99.90;;;;;;5044709;28;20036;-41
2023/07/28 06:50:29;;;;;;;10.05;8.23;;;19.90;99.90;;;;;;5044767;28;20052;-42
2023/07/28 06:52:54;;;;;;;9.35;8.20;;;19.90;99.90;;;;;;5044563;28;20031;-43
2023/07/28 06:55:21;;;;;;;14.57;9.18;;;20.00;99.90;;;;;;5044193;28;20128;-41
2023/07/28 06:57:47;;;;;;;11.50;9.60;;;20.00;99.90;;;;;;5047070;28;20039;-41
2023/07/28 07:00:14;;;;;;;13.25;9.60;;;19.90;99.90;;;;;;5047990;28;20256;-41
2023/07/28 07:02:40;;;;;;;14.15;10.10;;;20.00;99.90;;;;;;5049185;28;20036;-42
2023/07/28 07:05:06;;;;;;;11.38;9.30;;;20.00;99.90;;;;;;5049340;28;20011;-42
2023/07/28 07:07:41;;;;;;;11.65;8.95;;;20.00;99.90;;;;;;5048744;28;20231;-42
2023/07/28 07:10:08;;;;;;;12.65;9.82;;;20.10;99.90;;;;;;5048682;28;20045;-42
2023/07/28 07:12:33;;;;;;;11.85;8.98;;;20.10;99.90;;;;;;5048582;28;20025;-41
2023/07/28 07:14:59;;;;;;;12.20;8.52;;;20.10;99.90;;;;;;5047951;28;20441;-41
2023/07/28 07:17:24;;;;;;;12.68;8.80;;;20.10;99.90;;;;;;5048899;28;20021;-42
2023/07/28 07:19:50;;;;;;;13.60;9.90;;;20.20;99.90;;;;;;5049095;28;20028;-41
2023/07/28 07:22:15;;;;;;;13.45;9.38;;;20.30;99.90;;;;;;5047561;28;20037;-42
2023/07/28 07:24:41;;;;;;;12.27;9.40;;;20.40;99.90;;;;;;5048643;28;20094;-42
2023/07/28 07:27:10;;;;;;;10.13;8.25;;;20.40;99.90;;;;;;5048744;28;20054;-42
2023/07/28 07:29:39;;;;;;;10.27;9.20;;;20.50;99.90;;;;;;5047713;28;20029;-43
2023/07/28 07:32:06;;;;;;;12.60;9.95;;;20.50;99.90;;;;;;5047990;28;20039;-43
2023/07/28 07:34:33;;;;;;;11.45;8.93;;;20.50;99.90;;;;;;5048476;28;20029;-43
2023/07/28 07:36:58;;;;;;;11.63;8.82;;;20.50;99.90;;;;;;5047031;28;20144;-42
2023/07/28 07:39:24;;;;;;;11.05;8.68;;;20.50;99.90;;;;;;5048673;28;20109;-43
2023/07/28 07:41:49;;;;;;;9.80;8.65;;;20.50;99.90;;;;;;5048246;28;20619;-42
2023/07/28 07:44:15;;;;;;;10.38;8.38;;;20.50;99.90;;;;;;5047303;28;20037;-42
2023/07/28 07:46:43;;;;;;;9.77;7.80;;;20.60;99.90;;;;;;5048275;28;20025;-42
2023/07/28 07:49:09;;;;;;;10.27;8.25;;;20.60;99.90;;;;;;5048354;28;20021;-43
2023/07/28 07:51:34;;;;;;;10.15;8.30;;;20.70;99.90;;;;;;5047123;28;20029;-43
2023/07/28 07:54:03;;;;;;;11.80;8.52;;;20.70;99.90;;;;;;5047896;28;20029;-43
2023/07/28 07:56:29;;;;;;;9.98;8.00;;;20.70;99.90;;;;;;5048078;28;20028;-43
2023/07/28 07:58:54;;;;;;;9.82;8.07;;;20.90;99.90;;;;;;5047955;28;20017;-42
2023/07/28 08:01:20;;;;;;;8.15;7.30;;;21.00;99.90;;;;;;5048014;28;20094;-41
2023/07/28 08:03:45;;;;;;;9.35;7.57;;;21.10;99.90;;;;;;5047005;28;20075;-42
2023/07/28 08:06:12;;;;;;;9.63;7.45;;;21.10;99.90;;;;;;5048281;28;20029;-42
2023/07/28 08:08:38;;;;;;;9.35;6.95;;;21.10;99.90;;;;;;5047050;28;20052;-42
2023/07/28 08:11:04;;;;;;;9.80;7.63;;;21.20;99.90;;;;;;5046946;28;20575;-42
2023/07/28 08:13:35;;;;;;;9.20;7.22;;;21.30;99.90;;;;;;5048038;28;20028;-42
2023/07/28 08:16:04;;;;;;;7.85;6.32;;;21.30;99.90;;;;;;5047715;28;20025;-43
2023/07/28 08:18:32;;;;;;;9.40;7.43;;;21.40;99.90;;;;;;5046915;28;20104;-41
2023/07/28 08:20:58;;;;;;;8.52;7.18;;;21.50;99.90;;;;;;5048422;28;20103;-43
2023/07/28 08:23:27;;;;;;;10.45;6.80;;;21.60;99.90;;;;;;5047507;28;20800;-42
2023/07/28 08:25:53;;;;;;;8.73;6.90;;;21.60;99.90;;;;;;5046234;28;20082;-42
2023/07/28 08:28:19;;;;;;;10.25;7.55;;;21.60;99.90;;;;;;5047089;28;20492;-43
2023/07/28 08:30:44;;;;;;;9.68;7.85;;;21.60;99.90;;;;;;5047557;28;20040;-43
2023/07/28 08:33:10;;;;;;;8.65;7.53;;;21.60;99.90;;;;;;5046297;28;20017;-42
2023/07/28 08:35:35;;;;;;;8.65;7.70;;;21.60;99.90;;;;;;5047373;28;20049;-42
2023/07/28 08:38:01;;;;;;;9.02;7.82;;;21.60;99.90;;;;;;5046356;28;20515;-42
2023/07/28 08:40:27;;;;;;;9.00;8.00;;;21.60;99.90;;;;;;5046618;28;20385;-41
2023/07/28 08:42:53;;;;;;;8.07;7.20;;;21.60;99.90;;;;;;5046068;28;20064;-41
2023/07/28 08:45:19;;;;;;;9.80;8.05;;;21.60;99.90;;;;;;5046715;28;20036;-41
2023/07/28 08:47:45;;;;;;;6.97;6.35;;;21.60;99.90;;;;;;5046729;28;20021;-42
2023/07/28 08:50:11;;;;;;;7.40;6.70;;;21.60;99.90;;;;;;5046221;28;20031;-41
2023/07/28 08:52:39;;;;;;;7.32;6.53;;;21.70;99.90;;;;;;5046617;28;20053;-42
2023/07/28 08:55:06;;;;;;;8.70;7.13;;;21.60;99.90;;;;;;5046276;28;20033;-41
2023/07/28 08:57:31;;;;;;;8.77;7.22;;;21.60;99.90;;;;;;5046769;28;20025;-40
2023/07/28 08:59:57;;;;;;;7.18;6.35;;;21.60;99.90;;;;;;5045931;28;20477;-42
2023/07/28 09:02:23;;;;;;;8.05;6.35;;;21.60;99.90;;;;;;5047047;28;20075;-41
2023/07/28 09:04:49;;;;;;;8.85;7.00;;;21.60;99.90;;;;;;5046131;28;20044;-41
2023/07/28 09:07:15;;;;;;;8.15;7.03;;;21.60;99.90;;;;;;5045665;28;20555;-41
2023/07/28 09:09:44;;;;;;;9.05;7.50;;;21.60;99.90;;;;;;5046223;28;20033;-42
2023/07/28 09:12:13;;;;;;;10.73;7.63;;;21.70;99.90;;;;;;5046762;28;20054;-41
2023/07/28 09:14:42;;;;;;;6.82;6.13;;;21.70;99.90;;;;;;5045192;28;20024;-41
2023/07/28 09:17:18;;;;;;;7.72;6.75;;;21.70;99.90;;;;;;5035186;28;20746;-42
2023/07/28 09:19:55;;;;;;;7.43;6.68;;;21.80;99.90;;;;;;5045661;28;20029;-42
2023/07/28 09:22:23;;;;;;;9.50;6.93;;;21.80;99.90;;;;;;5034621;28;20427;-42
2023/07/28 09:24:50;;;;;;;9.65;7.03;;;21.90;99.90;;;;;;5046440;28;20132;-42
2023/07/28 09:27:21;;;;;;;7.47;6.50;;;21.90;99.90;;;;;;5046384;28;20020;-42
2023/07/28 09:29:55;;;;;;;7.10;6.40;;;22.00;99.90;;;;;;5045631;28;20053;-42
2023/07/28 09:32:36;;;;;;;7.78;6.97;;;22.20;99.90;;;;;;5046587;28;20025;-42
2023/07/28 09:35:09;;;;;;;9.67;7.10;;;22.40;99.90;;;;;;5046212;28;20548;-42
2023/07/28 09:37:37;;;;;;;8.18;7.13;;;22.50;99.90;;;;;;5046723;28;20286;-42
2023/07/28 09:40:04;;;;;;;7.38;6.68;;;22.60;99.90;;;;;;5045795;28;20568;-42
2023/07/28 09:42:31;;;;;;;7.85;7.05;;;22.70;99.90;;;;;;5045721;28;20036;-42
2023/07/28 09:44:57;;;;;;;7.60;6.82;;;22.80;99.90;;;;;;5046258;28;20032;-42
2023/07/28 09:47:24;;;;;;;7.25;6.55;;;22.80;99.90;;;;;;5045690;28;20032;-42
2023/07/28 09:49:52;;;;;;;8.15;6.30;;;22.90;99.90;;;;;;5046064;28;20086;-43
2023/07/28 09:52:19;;;;;;;7.55;6.68;;;22.90;99.90;;;;;;5045480;28;20053;-43
2023/07/28 09:54:48;;;;;;;6.57;5.90;;;23.00;99.90;;;;;;5046466;28;20029;-43
2023/07/28 09:57:19;;;;;;;7.63;6.90;;;23.00;99.90;;;;;;5044919;28;20031;-42
2023/07/28 09:59:47;;;;;;;7.93;6.55;;;23.00;99.90;;;;;;5045671;28;20116;-34
2023/07/28 10:02:13;;;;;;;9.55;7.57;;;22.90;99.90;;;;;;5046011;28;20025;-34
2023/07/28 10:04:39;;;;;;;8.88;7.97;;;22.90;99.90;;;;;;5045031;28;20075;-35
2023/07/28 10:07:06;;;;;;;9.63;7.82;;;22.90;99.90;;;;;;5045489;28;20594;-35
2023/07/28 10:09:33;;;;;;;7.82;6.95;;;23.00;99.90;;;;;;5045779;28;20020;-36
2023/07/28 10:12:03;;;;;;;7.88;7.07;;;23.00;99.90;;;;;;5044894;28;20059;-34
2023/07/28 10:14:31;;;;;;;8.15;6.90;;;23.10;99.90;;;;;;5046035;28;20091;-35
2023/07/28 10:16:58;;;;;;;6.72;6.03;;;23.10;99.90;;;;;;5045268;28;20021;-34
2023/07/28 10:19:27;;;;;;;8.23;7.45;;;23.20;99.90;;;;;;5045663;28;20120;-35
2023/07/28 10:22:01;;;;;;;8.15;7.32;;;23.20;99.90;;;;;;5045241;28;20027;-34
2023/07/28 10:24:55;;;;;;;7.82;7.03;;;23.20;99.90;;;;;;5033952;28;20071;-35
2023/07/28 10:27:38;;;;;;;7.00;6.32;;;23.30;99.90;;;;;;5045151;28;20032;-35
2023/07/28 10:30:09;;;;;;;8.55;7.63;;;23.40;99.90;;;;;;5045751;28;20107;-34
2023/07/28 10:32:39;;;;;;;8.13;7.33;;;23.50;99.90;;;;;;5047177;28;20158;-34
2023/07/28 10:35:08;;;;;;;7.07;6.43;;;23.60;99.90;;;;;;5046469;28;20522;-33
2023/07/28 10:37:36;;;;;;;7.75;6.95;;;23.70;99.90;;;;;;5044201;28;20758;-35
2023/07/28 10:40:39;;;;;;;6.20;5.63;;;23.80;99.90;;;;;;5043943;28;20360;-34
2023/07/28 10:43:04;;;;;;;7.55;6.68;;;23.90;99.90;;;;;;5043797;28;20381;-34
2023/07/28 10:45:32;;;;;;;7.35;6.22;;;24.00;99.90;;;;;;5043926;28;20024;-35
2023/07/28 10:48:03;;;;;;;7.00;6.30;;;24.20;99.90;;;;;;5044163;28;20055;-35
2023/07/28 10:50:30;;;;;;;6.57;5.97;;;24.30;99.90;;;;;;5045019;28;20115;-34
2023/07/28 10:52:56;;;;;;;6.22;5.63;;;24.40;99.90;;;;;;5043861;28;20017;-35
2023/07/28 10:55:24;;;;;;;7.53;6.82;;;24.50;99.90;;;;;;5044396;28;20043;-36
2023/07/28 10:57:51;;;;;;;7.25;6.65;;;24.50;99.90;;;;;;5041853;28;20227;-35
2023/07/28 11:00:22;;;;;;;6.72;6.05;;;24.50;99.90;;;;;;5043508;28;20572;-35
2023/07/28 11:02:56;;;;;;;7.85;7.13;;;24.50;99.90;;;;;;5044274;28;20052;-36
2023/07/28 11:05:23;;;;;;;7.53;6.82;;;24.40;99.90;;;;;;5042255;28;20021;-34
2023/07/28 11:07:50;;;;;;;7.78;6.97;;;24.40;99.90;;;;;;5043237;28;20025;-35
2023/07/28 11:10:17;;;;;;;7.35;6.65;;;24.40;99.90;;;;;;5041776;28;20052;-37
2023/07/28 11:12:44;;;;;;;7.07;6.38;;;24.40;99.90;;;;;;5043213;28;20025;-35
2023/07/28 11:15:13;;;;;;;7.47;6.78;;;24.40;99.90;;;;;;5042625;28;20385;-35
2023/07/28 11:17:40;;;;;;;7.63;6.93;;;24.40;99.90;;;;;;5044255;28;20567;-36
2023/07/28 11:20:29;;;;;;;7.30;6.40;;;24.40;99.90;;;;;;5043820;28;20033;-35
2023/07/28 11:22:58;;;;;;;6.03;5.53;;;24.30;99.90;;;;;;5024530;28;20038;-35
2023/07/28 11:25:25;;;;;;;6.57;5.97;;;24.40;99.90;;;;;;5040911;28;20033;-35
2023/07/28 11:27:51;;;;;;;8.35;6.72;;;24.40;99.90;;;;;;5042974;28;20058;-35
2023/07/28 11:30:18;;;;;;;7.72;6.75;;;24.30;99.90;;;;;;5044015;28;20029;-36
2023/07/28 11:32:46;;;;;;;6.85;6.18;;;24.20;99.90;;;;;;5043871;28;20510;-35
2023/07/28 11:35:13;;;;;;;6.70;6.10;;;24.20;99.90;;;;;;5043458;28;20029;-35
2023/07/28 11:37:41;;;;;;;7.03;6.43;;;24.20;99.90;;;;;;5043715;28;20170;-37
2023/07/28 11:40:10;;;;;;;8.70;7.80;;;24.10;99.90;;;;;;5042687;28;20131;-36
2023/07/28 11:42:38;;;;;;;9.02;7.57;;;24.20;99.90;;;;;;5043734;28;20076;-37
2023/07/28 11:45:04;;;;;;;9.43;7.00;;;24.20;99.90;;;;;;5048131;28;20025;-36
2023/07/28 11:47:30;;;;;;;7.80;7.00;;;24.30;99.90;;;;;;5047956;28;20025;-36
2023/07/28 11:50:00;;;;;;;8.05;7.03;;;24.40;99.90;;;;;;5046935;28;20040;-34
2023/07/28 11:52:36;;;;;;;7.57;6.53;;;24.50;99.90;;;;;;5048405;28;20144;-35
2023/07/28 11:55:04;;;;;;;7.22;6.53;;;24.70;99.90;;;;;;5047634;28;20051;-35
2023/07/28 11:57:30;;;;;;;7.05;6.28;;;24.90;99.90;;;;;;5036216;28;20100;-34
2023/07/28 12:00:00;;;;;;;6.43;5.82;;;25.00;99.90;;;;;;5048210;28;20028;-34
2023/07/28 12:02:29;;;;;;;6.90;6.30;;;25.20;99.90;;;;;;5047207;28;20032;-35
2023/07/28 12:04:57;;;;;;;6.97;6.28;;;25.20;99.90;;;;;;5046364;28;20423;-33
2023/07/28 12:07:30;;;;;;;6.20;5.65;;;25.20;99.90;;;;;;5044596;28;20114;-34
2023/07/28 12:09:59;;;;;;;6.22;5.63;;;25.30;99.90;;;;;;5046701;28;20037;-34
2023/07/28 12:12:28;;;;;;;7.38;6.63;;;25.30;99.90;;;;;;5046006;28;20028;-34
2023/07/28 12:14:55;;;;;;;7.03;6.18;;;25.30;99.90;;;;;;5046583;28;20029;-34
2023/07/28 12:17:23;;;;;;;7.25;6.25;;;25.30;99.90;;;;;;5046197;28;20032;-33
2023/07/28 12:20:15;;;;;;;6.38;5.80;;;25.40;99.90;;;;;;5046765;28;20104;-35
2023/07/28 12:22:41;;;;;;;7.30;6.30;;;25.40;99.90;;;;;;5046387;28;20037;-35
2023/07/28 12:25:08;;;;;;;7.05;5.80;;;25.40;99.90;;;;;;5045981;28;20024;-34
2023/07/28 12:27:40;;;;;;;6.18;5.50;;;25.50;99.90;;;;;;5046052;28;20452;-35
2023/07/28 12:30:08;;;;;;;6.45;5.85;;;25.40;99.90;;;;;;5046731;28;20108;-35
2023/07/28 12:32:34;;;;;;;5.82;5.32;;;25.50;99.90;;;;;;5046112;28;20159;-36
2023/07/28 12:35:00;;;;;;;6.55;5.88;;;25.50;99.90;;;;;;5047469;28;20132;-35
2023/07/28 12:37:25;;;;;;;5.82;5.25;;;25.50;99.90;;;;;;5046951;28;20583;-36
2023/07/28 12:39:51;;;;;;;4.93;4.53;;;25.50;99.90;;;;;;5045923;28;20541;-37
2023/07/28 12:42:16;;;;;;;7.75;5.88;;;25.60;99.90;;;;;;5046644;28;20850;-35